Time;durP1;ratioP1;P1;durP2;ratioP2;P2;SDS_P1;SDS_P2;PMS_P1;PMS_P2;Temp;Humidity;BMP_temperature;BMP_pressure;BME280_temperature;BME280_humidity;BME280_pressure;Samples;Min_cycle;Max_cycle;Signal;HPM_P1;HPM_P2
2023/03/31 00:02:13;;;;;;;24.15;4.50;;;;;;;9.84;100.00;100183.69;10379765;28;20129;-71
2023/03/31 00:07:13;;;;;;;24.30;4.78;;;;;;;9.77;100.00;100170.16;10353916;28;20030;-71
2023/03/31 00:12:15;;;;;;;23.83;6.30;;;;;;;9.80;100.00;100171.56;10377554;28;20417;-71
2023/03/31 00:17:15;;;;;;;31.42;6.32;;;;;;;9.80;100.00;100172.38;10345986;28;20105;-71
2023/03/31 00:22:17;;;;;;;37.05;7.57;;;;;;;9.85;100.00;100166.06;10377864;28;20045;-71
2023/03/31 00:27:18;;;;;;;26.30;4.25;;;;;;;9.88;100.00;100158.13;10378074;28;20042;-70
2023/03/31 00:32:18;;;;;;;22.75;5.32;;;;;;;9.84;100.00;100139.69;10380936;28;20101;-70
2023/03/31 00:37:19;;;;;;;31.92;4.80;;;;;;;9.86;100.00;100145.72;10345137;28;20053;-71
2023/03/31 00:42:19;;;;;;;34.35;4.65;;;;;;;9.80;100.00;100116.59;10354656;28;20038;-71
2023/03/31 00:47:28;;;;;;;21.58;4.72;;;;;;;9.66;100.00;100105.25;10358678;28;20048;-71
2023/03/31 00:52:36;;;;;;;36.38;6.50;;;;;;;9.56;100.00;100099.69;10362044;28;20490;-71
2023/03/31 00:57:38;;;;;;;31.73;5.50;;;;;;;9.46;100.00;100106.75;10378045;28;20046;-70
2023/03/31 01:02:40;;;;;;;28.65;4.32;;;;;;;9.40;100.00;100094.09;10394144;28;20384;-71
2023/03/31 01:07:42;;;;;;;24.23;4.35;;;;;;;9.31;100.00;100081.97;10359862;28;20026;-71
2023/03/31 01:12:47;;;;;;;22.67;4.97;;;;;;;9.28;100.00;100079.72;10374640;28;20042;-71
2023/03/31 01:17:49;;;;;;;21.60;4.88;;;;;;;9.24;100.00;100071.22;10343806;28;20061;-71
2023/03/31 01:23:08;;;;;;;21.80;5.57;;;;;;;9.17;100.00;100047.81;10359934;28;20045;-71
2023/03/31 01:28:27;;;;;;;24.33;4.20;;;;;;;9.13;100.00;100043.94;10379035;28;20038;-69
2023/03/31 01:33:36;;;;;;;22.80;4.72;;;;;;;8.99;100.00;100052.66;10377078;28;20060;-69
2023/03/31 01:39:21;;;;;;;24.83;4.90;;;;;;;8.97;100.00;100043.84;10375131;28;20038;-70
2023/03/31 01:44:44;;;;;;;24.13;4.63;;;;;;;8.96;100.00;100039.44;10345327;28;20039;-70
2023/03/31 01:49:56;;;;;;;24.65;4.90;;;;;;;8.85;100.00;100040.47;10335220;28;20081;-67
2023/03/31 01:55:08;;;;;;;20.67;5.13;;;;;;;8.74;100.00;100022.25;10324148;28;20397;-70
2023/03/31 02:00:13;;;;;;;28.58;4.85;;;;;;;8.67;100.00;100008.78;10373489;28;20065;-70
2023/03/31 02:05:16;;;;;;;20.45;4.90;;;;;;;8.55;100.00;100000.72;10357751;28;20030;-70
2023/03/31 02:10:17;;;;;;;20.27;4.70;;;;;;;8.56;100.00;100001.53;10373347;28;20044;-70
2023/03/31 02:15:26;;;;;;;27.10;4.22;;;;;;;8.55;100.00;100008.13;10358346;28;20035;-69
2023/03/31 02:20:26;;;;;;;21.98;4.53;;;;;;;8.48;100.00;99987.22;10373172;28;20042;-70
2023/03/31 02:25:36;;;;;;;31.00;5.43;;;;;;;8.63;100.00;99983.75;10373128;28;20055;-69
2023/03/31 02:30:48;;;;;;;15.90;3.55;;;;;;;8.64;100.00;99974.47;10356784;28;20469;-70
2023/03/31 02:35:48;;;;;;;14.85;4.35;;;;;;;8.72;100.00;99969.56;10372757;28;20052;-69
2023/03/31 02:40:49;;;;;;;20.52;3.50;;;;;;;8.82;100.00;99961.38;10359873;28;20038;-70
2023/03/31 02:45:50;;;;;;;15.13;3.55;;;;;;;8.50;100.00;99890.97;10371351;28;20045;-70
2023/03/31 02:51:15;;;;;;;21.50;4.53;;;;;;;8.83;100.00;99941.09;10356265;28;20521;-69
2023/03/31 02:56:41;;;;;;;14.75;3.42;;;;;;;8.81;100.00;99935.06;10380970;28;20049;-70
2023/03/31 03:02:03;;;;;;;18.37;4.90;;;;;;;8.80;100.00;99933.38;10381207;28;20109;-70
2023/03/31 03:07:15;;;;;;;14.82;5.43;;;;;;;8.78;100.00;99927.34;10382127;28;20038;-69
2023/03/31 03:12:28;;;;;;;25.77;5.63;;;;;;;8.77;100.00;99911.97;10385547;28;20034;-70
2023/03/31 03:17:39;;;;;;;18.15;5.72;;;;;;;8.40;100.00;99836.00;10421889;28;20069;-70
2023/03/31 03:22:40;;;;;;;17.92;5.15;;;;;;;8.87;100.00;99887.31;10420882;28;20409;-70
2023/03/31 03:27:41;;;;;;;19.17;4.95;;;;;;;8.92;100.00;99887.34;10405662;28;20044;-69
2023/03/31 03:32:41;;;;;;;16.70;4.93;;;;;;;8.86;100.00;99852.72;10422652;28;20030;-70
2023/03/31 03:37:42;;;;;;;19.80;4.57;;;;;;;9.04;100.00;99859.66;10403434;28;20049;-70
2023/03/31 03:42:42;;;;;;;16.80;5.22;;;;;;;9.02;100.00;99845.38;10420012;28;20053;-71
2023/03/31 03:47:43;;;;;;;17.38;4.43;;;;;;;8.97;100.00;99826.97;10384761;28;20038;-70
2023/03/31 03:52:43;;;;;;;17.40;4.55;;;;;;;8.93;100.00;99820.38;10361706;28;20425;-70
2023/03/31 03:57:44;;;;;;;19.60;4.53;;;;;;;8.91;100.00;99810.75;10363748;28;20088;-69
2023/03/31 04:02:44;;;;;;;18.75;5.00;;;;;;;8.87;100.00;99803.06;10380042;28;20472;-70
2023/03/31 04:07:45;;;;;;;14.57;4.68;;;;;;;8.89;100.00;99789.88;10379331;28;20052;-69
2023/03/31 04:12:45;;;;;;;12.85;4.22;;;;;;;8.90;100.00;99790.72;10379127;28;20042;-70
2023/03/31 04:17:49;;;;;;;19.50;4.47;;;;;;;8.94;100.00;99777.28;10378365;28;20056;-70
2023/03/31 04:22:50;;;;;;;12.40;3.70;;;;;;;8.84;100.00;99754.19;10403607;28;20044;-70
2023/03/31 04:27:53;;;;;;;18.38;4.97;;;;;;;8.92;100.00;99763.81;10419827;28;20501;-70
2023/03/31 04:32:54;;;;;;;12.73;3.97;;;;;;;8.94;100.00;99758.88;10402570;28;20034;-72
2023/03/31 04:37:57;;;;;;;18.25;4.70;;;;;;;8.93;100.00;99749.00;10401232;28;20048;-72
2023/03/31 04:42:58;;;;;;;22.05;5.63;;;;;;;8.94;100.00;99747.91;10418858;28;20064;-72
2023/03/31 04:47:58;;;;;;;22.42;6.53;;;;;;;8.91;100.00;99729.25;10417002;28;20052;-70
2023/03/31 04:52:59;;;;;;;16.88;6.32;;;;;;;8.92;100.00;99714.41;10418562;28;20041;-70
2023/03/31 04:57:59;;;;;;;14.90;5.55;;;;;;;8.92;100.00;99714.41;10390369;28;20038;-69
2023/03/31 05:03:00;;;;;;;13.55;5.35;;;;;;;8.57;100.00;99652.88;10354571;28;20049;-70
2023/03/31 05:08:01;;;;;;;26.23;7.40;;;;;;;8.88;100.00;99702.31;10336774;28;20037;-70
2023/03/31 05:13:01;;;;;;;16.33;6.15;;;;;;;8.82;100.00;99692.44;10335827;28;20106;-70
2023/03/31 05:18:02;;;;;;;15.13;5.80;;;;;;;8.82;100.00;99689.69;10334741;28;20039;-70
2023/03/31 05:23:02;;;;;;;20.55;5.82;;;;;;;8.82;100.00;99686.94;10335697;28;20117;-71
2023/03/31 05:28:03;;;;;;;19.52;7.13;;;;;;;8.82;100.00;99681.44;10337370;28;20034;-66
2023/03/31 05:33:04;;;;;;;11.63;6.03;;;;;;;8.82;100.00;99681.44;10336784;28;20057;-70
2023/03/31 05:38:05;;;;;;;10.98;5.28;;;;;;;8.82;100.00;99678.69;10334038;28;20039;-71
2023/03/31 05:43:05;;;;;;;14.10;6.00;;;;;;;8.83;100.00;99670.22;10342421;28;20192;-70
2023/03/31 05:48:06;;;;;;;17.70;6.28;;;;;;;8.85;100.00;99665.28;10375621;28;20042;-70
2023/03/31 05:53:06;;;;;;;22.73;7.13;;;;;;;8.85;100.00;99661.72;10377603;28;20045;-70
2023/03/31 05:58:07;;;;;;;15.38;6.22;;;;;;;8.84;100.00;99660.03;10408887;28;20037;-70
2023/03/31 06:03:07;;;;;;;12.82;7.38;;;;;;;8.86;100.00;99641.38;10415652;28;20049;-70
2023/03/31 06:08:08;;;;;;;24.23;8.77;;;;;;;8.85;100.00;99637.81;10398279;28;20033;-70
2023/03/31 06:13:09;;;;;;;19.90;7.50;;;;;;;8.54;100.00;99573.88;10414832;28;20117;-69
2023/03/31 06:18:10;;;;;;;18.13;8.20;;;;;;;8.88;100.00;99612.56;10415357;28;20038;-70
2023/03/31 06:23:10;;;;;;;19.85;8.27;;;;;;;9.00;100.00;99595.81;10415215;28;20041;-68
2023/03/31 06:28:11;;;;;;;20.00;8.48;;;;;;;9.08;100.00;99606.25;10399052;28;20061;-70
2023/03/31 06:33:12;;;;;;;17.88;8.65;;;;;;;9.04;100.00;99588.69;10397942;28;20029;-68
2023/03/31 06:38:12;;;;;;;18.55;8.80;;;;;;;9.11;100.00;99587.59;10405321;28;20054;-70
2023/03/31 06:43:13;;;;;;;26.20;9.88;;;;;;;9.23;100.00;99590.88;10372088;28;20544;-69
2023/03/31 06:48:13;;;;;;;19.85;8.15;;;;;;;9.12;100.00;99540.63;10353204;28;20110;-70
2023/03/31 06:53:14;;;;;;;20.55;9.20;;;;;;;9.29;100.00;99560.38;10357231;28;20127;-70
2023/03/31 06:58:14;;;;;;;21.85;8.50;;;;;;;9.31;100.00;99554.59;10375065;28;20117;-69
2023/03/31 07:03:21;;;;;;;22.23;9.00;;;;;;;9.24;100.00;99521.09;10374078;28;20046;-69
2023/03/31 07:08:21;;;;;;;15.32;8.95;;;;;;;9.40;100.00;99535.63;10372347;28;20552;-70
2023/03/31 07:13:22;;;;;;;19.73;9.23;;;;;;;9.37;100.00;99531.50;10373569;28;20110;-69
2023/03/31 07:18:30;;;;;;;17.13;8.65;;;;;;;8.99;100.00;99456.94;10407275;28;20044;-70
2023/03/31 07:23:31;;;;;;;19.27;8.88;;;;;;;9.42;100.00;99520.50;10390012;28;20493;-69
2023/03/31 07:28:31;;;;;;;19.58;9.45;;;;;;;9.46;100.00;99507.84;10393143;28;20057;-69
2023/03/31 07:33:32;;;;;;;18.58;7.70;;;;;;;9.50;100.00;99492.44;10373846;28;20453;-69
2023/03/31 07:38:32;;;;;;;18.50;7.88;;;;;;;9.55;100.00;99482.53;10396277;28;20092;-70
2023/03/31 07:43:33;;;;;;;14.73;7.70;;;;;;;9.46;100.00;99480.38;10401291;28;20084;-69
2023/03/31 07:48:33;;;;;;;19.77;9.15;;;;;;;9.46;100.00;99469.38;10382137;28;20045;-69
2023/03/31 07:53:34;;;;;;;14.00;8.15;;;;;;;9.48;100.00;99469.94;10364326;28;20069;-70
2023/03/31 07:58:35;;;;;;;15.10;8.63;;;;;;;9.47;100.00;99451.81;10389996;28;20069;-69
2023/03/31 08:03:35;;;;;;;15.63;8.20;;;;;;;9.42;100.00;99443.56;10401959;28;20088;-70
2023/03/31 08:08:37;;;;;;;17.15;7.60;;;;;;;9.39;100.00;99441.41;10400693;28;20076;-70
2023/03/31 08:13:37;;;;;;;20.10;7.30;;;;;;;9.42;100.00;99435.34;10379853;28;20072;-70
2023/03/31 08:18:38;;;;;;;21.15;7.80;;;;;;;9.43;100.00;99425.19;10386261;28;20359;-69
2023/03/31 08:23:38;;;;;;;14.60;7.57;;;;;;;9.49;100.00;99426.81;10378974;28;20046;-69
2023/03/31 08:28:39;;;;;;;18.15;7.78;;;;;;;9.49;100.00;99424.06;10378396;28;20045;-70
2023/03/31 08:33:39;;;;;;;20.80;8.10;;;;;;;9.47;100.00;99405.09;10376838;28;20124;-69
2023/03/31 08:38:41;;;;;;;21.48;8.60;;;;;;;9.46;100.00;99419.94;10378091;28;20030;-69
2023/03/31 08:43:43;;;;;;;24.42;9.40;;;;;;;9.60;100.00;99413.84;10395132;28;20069;-69
2023/03/31 08:48:47;;;;;;;18.75;9.75;;;;;;;9.63;100.00;99380.28;10384403;28;20519;-68
2023/03/31 08:53:56;;;;;;;16.77;9.80;;;;;;;10.00;100.00;99403.66;10418930;28;20037;-71
2023/03/31 08:59:01;;;;;;;17.58;9.98;;;;;;;10.10;100.00;99400.84;10400904;28;20049;-70
2023/03/31 09:04:14;;;;;;;22.48;12.25;;;;;;;10.16;100.00;99387.88;10418085;28;20042;-71
2023/03/31 09:09:37;;;;;;;19.88;11.38;;;;;;;10.13;100.00;99389.28;10418067;28;20057;-70
2023/03/31 09:14:59;;;;;;;20.48;12.27;;;;;;;10.19;100.00;99393.63;10377046;28;20057;-70
2023/03/31 09:20:08;;;;;;;19.98;13.43;;;;;;;10.17;100.00;99384.00;10414969;28;20093;-70
2023/03/31 09:25:27;;;;;;;20.80;11.70;;;;;;;10.20;100.00;99376.00;10399721;28;20037;-69
2023/03/31 09:30:32;;;;;;;19.70;10.15;;;;;;;10.22;100.00;99376.53;10415768;28;20611;-71
2023/03/31 09:35:33;;;;;;;23.48;11.20;;;;;;;10.26;100.00;99372.09;10383189;28;20041;-72
2023/03/31 09:40:33;;;;;;;20.17;10.63;;;;;;;10.40;100.00;99365.97;10418411;28;20064;-71
2023/03/31 09:45:34;;;;;;;17.75;9.88;;;;;;;10.43;100.00;99359.88;10406955;28;20042;-70
2023/03/31 09:51:02;;;;;;;26.58;9.45;;;;;;;10.41;100.00;99356.59;10356050;28;20065;-70
2023/03/31 09:56:05;;;;;;;19.77;9.30;;;;;;;10.40;100.00;99352.22;10356210;28;20060;-71
2023/03/31 10:01:05;;;;;;;12.77;8.00;;;;;;;10.47;100.00;99350.75;10357363;28;20457;-70
2023/03/31 10:06:09;;;;;;;12.57;6.97;;;;;;;10.38;100.00;99329.69;10358784;28;20034;-70
2023/03/31 10:11:10;;;;;;;19.27;6.22;;;;;;;10.42;100.00;99348.06;10373570;28;20037;-70
2023/03/31 10:16:31;;;;;;;12.45;5.65;;;;;;;10.51;100.00;99342.72;10356813;28;20081;-70
2023/03/31 10:21:35;;;;;;;13.13;5.20;;;;;;;10.59;100.00;99336.59;10357237;28;20397;-69
2023/03/31 10:26:35;;;;;;;9.85;4.78;;;;;;;10.60;100.00;99332.72;10357335;28;20026;-69
2023/03/31 10:31:36;;;;;;;10.10;4.57;;;;;;;10.70;100.00;99338.09;10357227;28;20161;-69
2023/03/31 10:36:37;;;;;;;8.00;3.88;;;;;;;10.95;100.00;99327.91;10390674;28;20136;-69
2023/03/31 10:41:38;;;;;;;6.38;3.03;;;;;;;10.98;100.00;99327.31;10383877;28;20053;-69
2023/03/31 10:46:41;;;;;;;5.90;3.08;;;;;;;10.96;100.00;99315.78;10402989;28;20117;-69
2023/03/31 10:51:58;;;;;;;6.28;2.95;;;;;;;10.95;100.00;99321.56;10352818;28;20041;-70
2023/03/31 10:57:02;;;;;;;5.15;3.55;;;;;;;11.14;100.00;99316.09;10374485;28;20049;-69
2023/03/31 11:02:20;;;;;;;4.53;2.47;;;;;;;11.37;100.00;99320.75;10343200;28;20064;-68
2023/03/31 11:07:36;;;;;;;5.47;2.63;;;;;;;11.52;100.00;99303.97;10373523;28;20042;-70
2023/03/31 11:12:40;;;;;;;4.28;2.83;;;;;;;11.57;100.00;99305.81;10357100;28;20092;-70
2023/03/31 11:17:53;;;;;;;4.80;2.65;;;;;;;11.39;100.00;99313.00;10363670;28;20046;-68
2023/03/31 11:22:53;;;;;;;5.55;2.88;;;;;;;11.25;100.00;99306.59;10382500;28;20183;-69
2023/03/31 11:28:17;;;;;;;6.00;3.50;;;;;;;11.37;100.00;99318.00;10382501;28;20568;-70
2023/03/31 11:33:32;;;;;;;9.45;3.92;;;;;;;11.75;100.00;99300.59;10379724;28;20057;-70
2023/03/31 11:38:49;;;;;;;8.27;3.20;;;;;;;12.28;100.00;99298.31;10380660;28;20041;-69
2023/03/31 11:43:51;;;;;;;12.50;4.05;;;;;;;12.72;100.00;99291.38;10413766;28;20042;-70
2023/03/31 11:48:57;;;;;;;6.20;2.30;;;;;;;13.17;100.00;99274.16;10421359;28;20052;-68
2023/03/31 11:53:57;;;;;;;7.28;2.88;;;;;;;13.30;100.00;99269.75;10421420;28;20414;-69
2023/03/31 11:58:58;;;;;;;9.10;2.67;;;;;;;13.04;100.00;99270.28;10419669;28;20053;-68
2023/03/31 12:04:17;;;;;;;6.80;1.90;;;;;;;13.02;100.00;99261.50;10419948;28;20069;-69
2023/03/31 12:10:04;;;;;;;6.80;1.30;;;;;;;12.99;100.00;99273.16;10420923;28;20041;-70
2023/03/31 12:15:26;;;;;;;3.22;1.27;;;;;;;13.31;100.00;99263.91;10254696;28;20053;-68
2023/03/31 12:20:32;;;;;;;6.40;1.45;;;;;;;13.26;100.00;99266.75;10394792;28;20040;-68
2023/03/31 12:26:00;;;;;;;5.10;1.65;;;;;;;12.63;100.00;99253.75;10402164;28;20037;-70
2023/03/31 12:31:01;;;;;;;4.70;2.10;;;;;;;12.40;100.00;99261.13;10401328;28;20515;-71
2023/03/31 12:36:32;;;;;;;5.57;3.05;;;;;;;12.37;100.00;99261.75;10386715;28;20041;-69
2023/03/31 12:41:53;;;;;;;5.22;2.20;;;;;;;12.74;100.00;99252.44;10381979;28;20048;-69
2023/03/31 12:47:17;;;;;;;8.60;2.35;;;;;;;13.16;100.00;99239.34;10377068;28;20072;-68
2023/03/31 12:52:20;;;;;;;5.00;2.30;;;;;;;13.62;100.00;99241.06;10377596;28;20084;-68
2023/03/31 12:57:23;;;;;;;4.38;1.75;;;;;;;13.60;100.00;99225.88;10379306;28;20089;-68
2023/03/31 13:02:24;;;;;;;8.48;1.90;;;;;;;13.41;100.00;99185.44;10378926;28;20041;-69
2023/03/31 13:07:25;;;;;;;8.48;2.58;;;;;;;13.36;100.00;99218.75;10377355;28;20041;-68
2023/03/31 13:12:26;;;;;;;8.02;3.50;;;;;;;13.37;100.00;99203.78;10389444;28;20048;-68
2023/03/31 13:17:36;;;;;;;9.13;3.20;;;;;;;13.37;100.00;99206.53;10382791;28;20490;-69
2023/03/31 13:22:36;;;;;;;6.60;2.75;;;;;;;13.60;100.00;99203.78;10396558;28;20040;-68
2023/03/31 13:27:38;;;;;;;4.95;2.20;;;;;;;14.34;100.00;99194.88;10417790;28;20053;-69
2023/03/31 13:32:40;;;;;;;7.13;2.13;;;;;;;15.21;100.00;99188.69;10390005;28;20042;-69
2023/03/31 13:38:13;;;;;;;9.63;2.15;;;;;;;15.17;100.00;99184.94;10379375;28;20097;-69
2023/03/31 13:43:32;;;;;;;5.72;2.00;;;;;;;14.62;100.00;99189.13;10395964;28;20041;-69
2023/03/31 13:48:53;;;;;;;9.30;2.70;;;;;;;14.01;100.00;99191.63;10375932;28;20046;-68
2023/03/31 13:54:28;;;;;;;11.73;3.00;;;;;;;13.40;100.00;99192.09;10374855;28;20037;-70
2023/03/31 14:00:07;;;;;;;11.90;3.42;;;;;;;12.82;100.00;99196.47;10357044;28;20050;-71
2023/03/31 14:05:33;;;;;;;9.90;3.13;;;;;;;12.93;100.00;99189.56;10374582;28;20165;-71
2023/03/31 14:10:35;;;;;;;14.07;2.85;;;;;;;13.37;100.00;99191.91;10376871;28;20093;-69
2023/03/31 14:15:47;;;;;;;7.22;2.65;;;;;;;13.60;100.00;99178.88;10374674;28;20079;-70
2023/03/31 14:21:20;;;;;;;7.07;3.15;;;;;;;13.86;100.00;99181.81;10357343;28;20030;-69
2023/03/31 14:26:45;;;;;;;14.75;3.25;;;;;;;13.93;100.00;99174.69;10373244;28;20045;-69
2023/03/31 14:31:58;;;;;;;11.07;4.05;;;;;;;13.58;100.00;99168.16;10376436;28;20038;-68
2023/03/31 14:37:05;;;;;;;11.10;4.25;;;;;;;13.23;100.00;99167.06;10356716;28;20053;-71
2023/03/31 14:42:13;;;;;;;8.85;3.70;;;;;;;12.92;100.00;99173.34;10373368;28;20077;-71
2023/03/31 14:47:15;;;;;;;8.55;3.78;;;;;;;12.49;100.00;99165.44;10342228;28;20046;-71
2023/03/31 14:52:17;;;;;;;16.55;4.13;;;;;;;11.88;100.00;99193.13;10380916;28;20577;-69
2023/03/31 14:57:20;;;;;;;6.03;2.25;;;;;;;11.25;100.00;99182.63;10382037;28;20097;-69
2023/03/31 15:02:32;;;;;;;7.63;2.08;;;;;;;11.16;100.00;99173.38;10381987;28;20049;-68
2023/03/31 15:07:32;;;;;;;7.90;2.08;;;;;;;11.65;100.00;99174.78;10364534;28;20122;-69
2023/03/31 15:12:33;;;;;;;9.57;2.22;;;;;;;11.98;100.00;99166.47;10400228;28;20056;-69
2023/03/31 15:17:39;;;;;;;14.65;3.25;;;;;;;12.44;100.00;99168.31;10382766;28;20042;-69
2023/03/31 15:22:39;;;;;;;7.50;1.80;;;;;;;12.49;100.00;99154.41;10400506;28;20037;-69
2023/03/31 15:27:44;;;;;;;5.35;1.77;;;;;;;12.54;100.00;99167.28;10403580;28;20042;-69
2023/03/31 15:32:44;;;;;;;4.97;1.17;;;;;;;12.40;100.00;99095.53;10384324;28;20049;-68
2023/03/31 15:37:45;;;;;;;7.53;2.03;;;;;;;13.45;100.00;99142.19;10381011;28;20061;-68
2023/03/31 15:42:45;;;;;;;10.32;2.17;;;;;;;13.48;100.00;99136.06;10379555;28;20038;-68
2023/03/31 15:47:49;;;;;;;5.03;1.00;;;;;;;13.00;100.00;99131.16;10377698;28;20045;-68
2023/03/31 15:52:56;;;;;;;4.78;1.30;;;;;;;12.81;100.00;99136.81;10415905;28;20088;-68
2023/03/31 15:58:00;;;;;;;6.25;1.75;;;;;;;12.74;100.00;99130.94;10400766;28;20061;-68
2023/03/31 16:03:01;;;;;;;3.85;1.38;;;;;;;12.46;100.00;99132.94;10398080;28;20042;-68
2023/03/31 16:08:02;;;;;;;9.18;2.67;;;;;;;12.51;100.00;99135.59;10381709;28;20037;-68
2023/03/31 16:13:03;;;;;;;4.50;2.10;;;;;;;12.27;100.00;99125.59;10401207;28;20033;-68
2023/03/31 16:18:06;;;;;;;5.15;1.88;;;;;;;12.16;100.00;99124.19;10416860;28;20037;-69
2023/03/31 16:23:32;;;;;;;11.48;2.70;;;;;;;12.08;100.00;99122.97;10420032;28;20041;-68
2023/03/31 16:28:34;;;;;;;3.38;1.85;;;;;;;11.86;100.00;99109.84;10416959;28;20037;-68
2023/03/31 16:33:52;;;;;;;4.45;2.03;;;;;;;11.78;100.00;99129.88;10400658;28;20048;-69
2023/03/31 16:38:57;;;;;;;7.50;2.20;;;;;;;11.60;100.00;99128.84;10419032;28;20044;-70
2023/03/31 16:43:57;;;;;;;6.07;2.05;;;;;;;11.46;100.00;99131.56;10415681;28;20048;-69
2023/03/31 16:48:58;;;;;;;5.80;2.78;;;;;;;11.39;100.00;99128.38;10419244;28;20045;-69
2023/03/31 16:53:58;;;;;;;5.50;2.88;;;;;;;11.21;100.00;99101.72;10417838;28;20037;-69
2023/03/31 16:58:59;;;;;;;8.35;3.05;;;;;;;11.27;100.00;99125.28;10398042;28;20047;-69
2023/03/31 17:04:00;;;;;;;11.73;3.40;;;;;;;11.17;100.00;99117.19;10398878;28;20033;-69
2023/03/31 17:09:00;;;;;;;10.98;3.88;;;;;;;11.10;100.00;99120.34;10414919;28;20056;-69
2023/03/31 17:14:02;;;;;;;12.88;3.20;;;;;;;11.07;100.00;99121.75;10382382;28;20389;-69
2023/03/31 17:19:03;;;;;;;10.05;3.42;;;;;;;11.01;100.00;99127.63;10416258;28;20116;-70
2023/03/31 17:24:05;;;;;;;10.20;3.70;;;;;;;10.96;100.00;99119.47;10416949;28;20087;-70
2023/03/31 17:29:06;;;;;;;10.88;3.30;;;;;;;10.85;100.00;99121.56;10416162;28;20036;-70
2023/03/31 17:34:06;;;;;;;16.13;5.63;;;;;;;10.73;100.00;99121.19;10415943;28;20040;-72
2023/03/31 17:39:07;;;;;;;9.45;3.92;;;;;;;10.61;100.00;99127.97;10398601;28;20049;-72
2023/03/31 17:44:07;;;;;;;9.00;3.65;;;;;;;10.46;100.00;99140.00;10397216;28;20033;-71
2023/03/31 17:49:08;;;;;;;8.82;3.47;;;;;;;10.39;100.00;99139.53;10399361;28;20087;-70
2023/03/31 17:54:11;;;;;;;8.82;3.15;;;;;;;10.34;100.00;99158.06;10415503;28;20049;-70
2023/03/31 17:59:12;;;;;;;11.27;3.25;;;;;;;10.25;100.00;99149.59;10396808;28;20053;-70
2023/03/31 18:04:13;;;;;;;7.05;2.85;;;;;;;10.21;100.00;99159.53;10413492;28;20053;-70
2023/03/31 18:09:14;;;;;;;8.35;2.88;;;;;;;10.15;100.00;99161.56;10397578;28;20042;-72
2023/03/31 18:14:14;;;;;;;11.20;3.47;;;;;;;10.09;100.00;99157.25;10414059;28;20033;-71
2023/03/31 18:19:15;;;;;;;8.05;3.15;;;;;;;9.98;100.00;99144.72;10397926;28;20042;-71
2023/03/31 18:24:17;;;;;;;5.50;3.20;;;;;;;10.02;100.00;99156.75;10413289;28;20068;-72
2023/03/31 18:29:18;;;;;;;9.77;3.28;;;;;;;9.97;100.00;99154.88;10412340;28;20401;-72
2023/03/31 18:34:18;;;;;;;6.30;3.58;;;;;;;9.92;100.00;99154.13;10413715;28;20044;-71
2023/03/31 18:39:18;;;;;;;6.57;4.13;;;;;;;9.88;100.00;99157.47;10410414;28;20037;-71
2023/03/31 18:44:20;;;;;;;9.68;3.90;;;;;;;9.84;100.00;99161.91;10397366;28;20065;-71
2023/03/31 18:49:21;;;;;;;13.75;4.50;;;;;;;9.46;100.00;99116.97;10397208;28;20076;-72
2023/03/31 18:54:22;;;;;;;9.73;4.40;;;;;;;9.84;100.00;99167.41;10412283;28;20030;-71
2023/03/31 18:59:23;;;;;;;9.75;4.65;;;;;;;9.83;100.00;99171.25;10413863;28;20382;-72
2023/03/31 19:04:23;;;;;;;17.35;5.88;;;;;;;9.85;100.00;99190.22;10395934;28;20575;-71
2023/03/31 19:09:26;;;;;;;14.35;4.82;;;;;;;9.84;100.00;99178.41;10367231;28;20584;-72
2023/03/31 19:14:27;;;;;;;12.07;4.90;;;;;;;9.84;100.00;99172.91;10415777;28;20040;-71
2023/03/31 19:19:27;;;;;;;9.63;4.50;;;;;;;9.83;100.00;99176.75;10402899;28;20264;-71
2023/03/31 19:24:28;;;;;;;11.25;4.90;;;;;;;9.83;100.00;99179.50;10396092;28;20046;-71
2023/03/31 19:29:30;;;;;;;10.27;5.38;;;;;;;9.85;100.00;99181.97;10412888;28;20040;-72
2023/03/31 19:34:31;;;;;;;12.20;5.72;;;;;;;9.82;100.00;99177.06;10414625;28;20080;-71
2023/03/31 19:39:31;;;;;;;12.70;5.28;;;;;;;9.84;100.00;99181.16;10403240;28;20072;-70
2023/03/31 19:44:32;;;;;;;13.82;5.55;;;;;;;9.74;100.00;99162.03;10387371;28;20029;-70
2023/03/31 19:49:33;;;;;;;14.65;5.15;;;;;;;9.83;100.00;99185.00;10410757;28;20041;-69
2023/03/31 19:54:33;;;;;;;12.48;5.63;;;;;;;9.83;100.00;99182.25;10381676;28;21039;-72
2023/03/31 19:59:34;;;;;;;21.23;6.22;;;;;;;9.82;100.00;99182.56;10399810;28;20065;-72
2023/03/31 20:04:35;;;;;;;13.77;5.55;;;;;;;9.79;100.00;99175.69;10403792;28;20045;-72
2023/03/31 20:09:36;;;;;;;11.00;5.47;;;;;;;9.75;100.00;99166.38;10389524;28;20518;-71
2023/03/31 20:14:37;;;;;;;16.23;7.30;;;;;;;9.67;100.00;99169.75;10402972;28;20037;-72
2023/03/31 20:19:38;;;;;;;8.75;5.03;;;;;;;9.66;100.00;99171.69;10398650;28;20084;-73
2023/03/31 20:24:38;;;;;;;13.23;5.53;;;;;;;9.54;100.00;99162.22;10418396;28;20114;-72
2023/03/31 20:29:39;;;;;;;13.40;5.57;;;;;;;9.58;100.00;99168.78;10400086;28;20034;-72
2023/03/31 20:34:39;;;;;;;10.32;5.70;;;;;;;9.54;100.00;99173.22;10404238;28;20048;-72
2023/03/31 20:39:41;;;;;;;12.32;6.10;;;;;;;9.51;100.00;99180.09;10358960;28;20079;-71
2023/03/31 20:44:41;;;;;;;10.20;6.00;;;;;;;9.49;100.00;99169.41;10396801;28;21381;-70
2023/03/31 20:49:42;;;;;;;16.98;7.43;;;;;;;9.48;100.00;99175.97;10376066;28;20053;-67
2023/03/31 20:54:42;;;;;;;8.90;6.25;;;;;;;9.47;100.00;99174.38;10384087;28;20045;-71
2023/03/31 20:59:43;;;;;;;9.60;6.28;;;;;;;9.44;100.00;99172.19;10388682;28;20595;-71
2023/03/31 21:04:43;;;;;;;11.93;6.07;;;;;;;9.29;100.00;99155.84;10342892;28;20121;-71
2023/03/31 21:09:44;;;;;;;11.20;6.25;;;;;;;9.28;100.00;99154.19;10377456;28;20069;-70
2023/03/31 21:14:44;;;;;;;14.88;6.55;;;;;;;9.38;100.00;99176.06;10378788;28;20041;-70
2023/03/31 21:19:45;;;;;;;9.23;5.97;;;;;;;9.33;100.00;99172.56;10386186;28;20049;-71
2023/03/31 21:24:45;;;;;;;11.25;6.70;;;;;;;9.35;100.00;99182.16;10398740;28;20030;-70
2023/03/31 21:29:46;;;;;;;11.48;6.57;;;;;;;9.37;100.00;99190.94;10398807;28;20056;-71
2023/03/31 21:34:46;;;;;;;7.47;6.18;;;;;;;9.27;100.00;99161.63;10378421;28;20122;-70
2023/03/31 21:39:46;;;;;;;8.20;7.20;;;;;;;9.40;100.00;99184.84;10375767;28;20026;-69
2023/03/31 21:44:47;;;;;;;11.00;6.82;;;;;;;9.39;100.00;99183.22;10359675;28;20045;-70
2023/03/31 21:49:48;;;;;;;10.93;6.45;;;;;;;9.37;100.00;99181.88;10375546;28;20061;-70
2023/03/31 21:54:48;;;;;;;12.70;7.45;;;;;;;9.35;100.00;99171.16;10414856;28;20100;-70
2023/03/31 21:59:50;;;;;;;9.93;7.75;;;;;;;9.37;100.00;99185.44;10414152;28;20105;-71
2023/03/31 22:04:51;;;;;;;12.07;8.30;;;;;;;9.32;100.00;99182.72;10352877;28;20121;-70
2023/03/31 22:09:51;;;;;;;17.58;9.40;;;;;;;9.35;100.00;99179.41;10415871;28;20041;-70
2023/03/31 22:14:52;;;;;;;13.15;8.07;;;;;;;9.34;100.00;99183.25;10415651;28;20060;-70
2023/03/31 22:19:53;;;;;;;16.67;8.63;;;;;;;9.34;100.00;99183.25;10413271;28;20395;-70
2023/03/31 22:24:53;;;;;;;13.55;8.65;;;;;;;9.34;100.00;99190.69;10415170;28;20029;-70
2023/03/31 22:29:54;;;;;;;12.88;8.75;;;;;;;9.32;100.00;99193.69;10399695;28;20486;-65
2023/03/31 22:34:55;;;;;;;13.52;8.75;;;;;;;9.26;100.00;99175.63;10373304;28;20478;-69
2023/03/31 22:39:55;;;;;;;12.88;9.38;;;;;;;9.31;100.00;99181.09;10375536;28;20088;-70
2023/03/31 22:44:55;;;;;;;12.85;9.20;;;;;;;9.31;100.00;99186.59;10344490;28;20061;-71
2023/03/31 22:49:56;;;;;;;17.60;10.05;;;;;;;9.30;100.00;99184.94;10372148;28;20044;-71
2023/03/31 22:54:56;;;;;;;18.77;10.55;;;;;;;9.32;100.00;99188.22;10356514;28;20060;-71
2023/03/31 22:59:57;;;;;;;14.00;9.20;;;;;;;9.31;100.00;99194.81;10373900;28;20034;-71
2023/03/31 23:04:57;;;;;;;16.23;9.48;;;;;;;9.32;100.00;99192.88;10373684;28;20097;-71
2023/03/31 23:09:58;;;;;;;13.45;9.55;;;;;;;9.30;100.00;99201.41;10379686;28;20030;-70
2023/03/31 23:14:58;;;;;;;14.73;9.15;;;;;;;9.28;100.00;99198.13;10418719;28;20045;-71